Time;durP1;ratioP1;P1;durP2;ratioP2;P2;SDS_P1;SDS_P2;PMS_P1;PMS_P2;Temp;Humidity;BMP_temperature;BMP_pressure;BME280_temperature;BME280_humidity;BME280_pressure;Samples;Min_cycle;Max_cycle;Signal;HPM_P1;HPM_P2
2024/04/14 00:00:37;;;;;;;2.20;1.88;;;;;;;23.38;40.50;97688.94;5251880;26;20344;-79
2024/04/14 00:03:03;;;;;;;2.65;1.90;;;;;;;23.34;40.49;97685.38;5291899;26;20010;-79
2024/04/14 00:05:29;;;;;;;2.08;1.85;;;;;;;23.31;40.54;97687.88;5312665;26;20000;-79
2024/04/14 00:07:54;;;;;;;2.83;2.00;;;;;;;23.31;40.90;97686.00;5281659;26;20005;-79
2024/04/14 00:10:20;;;;;;;2.33;1.80;;;;;;;23.26;40.62;97688.81;5329970;26;20002;-79
2024/04/14 00:12:45;;;;;;;3.00;2.17;;;;;;;23.29;40.77;97693.50;5300177;26;20009;-80
2024/04/14 00:15:10;;;;;;;3.10;1.80;;;;;;;23.22;40.86;97676.47;5327516;26;20023;-79
2024/04/14 00:17:36;;;;;;;1.77;1.67;;;;;;;23.16;40.94;97667.88;5315419;26;20005;-83
2024/04/14 00:20:03;;;;;;;2.63;1.80;;;;;;;23.21;41.00;97675.69;5325691;26;20008;-83
2024/04/14 00:22:29;;;;;;;2.20;1.63;;;;;;;23.12;41.07;97669.63;5303037;26;20032;-83
2024/04/14 00:24:55;;;;;;;1.75;1.65;;;;;;;23.16;41.23;97671.31;5298495;26;20005;-82
2024/04/14 00:27:21;;;;;;;2.30;1.73;;;;;;;23.11;41.28;97668.81;5306955;26;20078;-83
2024/04/14 00:29:46;;;;;;;3.45;1.92;;;;;;;23.16;41.12;97673.97;5275735;26;20048;-84
2024/04/14 00:32:12;;;;;;;3.22;1.98;;;;;;;23.20;41.22;97668.81;5300325;26;20013;-83
2024/04/14 00:34:37;;;;;;;5.45;2.08;;;;;;;23.14;41.36;97659.47;5302244;26;20002;-83
2024/04/14 00:37:03;;;;;;;2.17;1.75;;;;;;;23.12;41.38;97672.28;5323731;26;20383;-82
2024/04/14 00:39:28;;;;;;;2.55;1.90;;;;;;;23.16;41.26;97659.91;5254204;26;20033;-82
2024/04/14 00:41:53;;;;;;;3.47;1.90;;;;;;;23.02;41.49;97661.94;5308007;26;20020;-82
2024/04/14 00:44:19;;;;;;;2.33;2.13;;;;;;;22.99;41.64;97664.13;5300956;26;20005;-83
2024/04/14 00:46:44;;;;;;;2.83;1.80;;;;;;;22.99;41.57;97658.81;5276962;26;20005;-84
2024/04/14 00:49:10;;;;;;;3.38;2.03;;;;;;;23.00;41.52;97659.59;5277381;26;20009;-84
2024/04/14 00:51:35;;;;;;;2.17;1.85;;;;;;;22.97;41.49;97655.69;5330184;26;20083;-84
2024/04/14 00:54:01;;;;;;;2.30;2.00;;;;;;;23.04;41.48;97665.84;5325261;26;20001;-82
2024/04/14 00:56:27;;;;;;;1.77;1.67;;;;;;;23.04;41.52;97659.75;5277180;26;20052;-83
2024/04/14 00:58:52;;;;;;;1.48;1.38;;;;;;;22.95;41.17;97657.09;5335813;26;20017;-84
2024/04/14 01:01:18;;;;;;;2.05;1.80;;;;;;;22.95;41.57;97665.84;5337329;26;20030;-84
2024/04/14 01:03:44;;;;;;;2.67;2.10;;;;;;;22.87;41.68;97650.69;5273044;26;20006;-81
2024/04/14 01:06:10;;;;;;;2.20;1.73;;;;;;;22.86;41.44;97665.06;5308127;26;20514;-85
2024/04/14 01:08:35;;;;;;;2.58;2.10;;;;;;;22.87;41.25;97658.66;5300794;26;20094;-83
2024/04/14 01:11:00;;;;;;;2.13;1.92;;;;;;;22.80;41.71;97661.00;5341494;26;20374;-82
2024/04/14 01:13:26;;;;;;;2.17;1.70;;;;;;;22.76;41.67;97665.38;5280372;26;20139;-85
2024/04/14 01:15:51;;;;;;;3.50;1.90;;;;;;;22.82;41.52;97664.13;5289651;26;20007;-83
2024/04/14 01:18:16;;;;;;;1.92;1.73;;;;;;;22.83;41.48;97662.28;5269834;26;20013;-84
2024/04/14 01:20:42;;;;;;;2.05;1.85;;;;;;;22.83;41.69;97663.03;5295438;26;20013;-83
2024/04/14 01:23:07;;;;;;;2.50;2.08;;;;;;;22.79;41.58;97664.75;5291686;26;20026;-83
2024/04/14 01:25:33;;;;;;;1.83;1.73;;;;;;;22.69;41.83;97660.53;5296492;26;20001;-83
2024/04/14 01:27:58;;;;;;;2.17;1.90;;;;;;;22.80;41.52;97668.97;5288642;26;19997;-79
2024/04/14 01:30:24;;;;;;;1.67;1.58;;;;;;;22.74;41.32;97662.25;5303732;26;20014;-79
2024/04/14 01:32:49;;;;;;;2.38;1.95;;;;;;;22.70;41.44;97656.00;5276084;26;20642;-79
2024/04/14 01:35:15;;;;;;;2.08;1.83;;;;;;;22.57;41.65;97647.88;5304792;26;20032;-80
2024/04/14 01:37:40;;;;;;;3.50;1.92;;;;;;;22.61;41.94;97658.66;5301220;26;20005;-83
2024/04/14 01:40:06;;;;;;;3.20;1.90;;;;;;;22.67;41.82;97656.63;5310997;26;20063;-82
2024/04/14 01:42:33;;;;;;;3.50;1.67;;;;;;;22.70;41.80;97661.31;5285684;26;20431;-82
2024/04/14 01:44:58;;;;;;;3.17;1.83;;;;;;;22.68;41.27;97658.19;5321038;26;20004;-83
2024/04/14 01:47:24;;;;;;;1.92;1.55;;;;;;;22.56;41.70;97659.56;5265770;26;20057;-83
2024/04/14 01:49:49;;;;;;;1.67;1.40;;;;;;;22.55;41.79;97658.03;5299680;26;20008;-83
2024/04/14 01:52:15;;;;;;;2.58;1.90;;;;;;;22.54;41.78;97658.34;5311927;26;20111;-85
2024/04/14 01:54:43;;;;;;;3.60;2.03;;;;;;;22.51;41.51;97651.75;5362025;26;20008;-85
2024/04/14 01:57:08;;;;;;;2.45;1.67;;;;;;;22.59;41.45;97656.31;5279891;26;20463;-85
2024/04/14 01:59:34;;;;;;;1.83;1.73;;;;;;;22.68;41.11;97651.00;5331223;26;20056;-85
2024/04/14 02:02:00;;;;;;;3.35;1.75;;;;;;;22.66;41.12;97639.16;5343189;26;20019;-86
2024/04/14 02:04:25;;;;;;;3.03;1.95;;;;;;;22.60;41.16;97652.56;5352505;26;20001;-84
2024/04/14 02:06:51;;;;;;;2.78;1.90;;;;;;;22.51;41.47;97635.06;5296671;26;20015;-86
2024/04/14 02:09:16;;;;;;;2.95;1.60;;;;;;;22.71;41.16;97646.97;5279374;26;20111;-86
2024/04/14 02:11:41;;;;;;;2.60;2.00;;;;;;;22.67;41.17;97646.81;5360240;26;20410;-86
2024/04/14 02:14:07;;;;;;;1.92;1.73;;;;;;;22.70;40.73;97646.16;5327245;26;20011;-85
2024/04/14 02:16:32;;;;;;;1.77;1.65;;;;;;;22.72;40.86;97651.16;5283164;26;20005;-85
2024/04/14 02:18:58;;;;;;;2.30;2.10;;;;;;;22.69;41.08;97655.22;5324618;26;20005;-86
2024/04/14 02:21:23;;;;;;;2.92;1.80;;;;;;;22.73;40.96;97658.81;5336024;26;20004;-87
2024/04/14 02:23:49;;;;;;;3.80;1.85;;;;;;;22.64;41.12;97663.34;5318741;26;20024;-81
2024/04/14 02:26:14;;;;;;;1.60;1.50;;;;;;;22.55;41.18;97654.56;5311944;26;20008;-85
2024/04/14 02:28:39;;;;;;;2.05;1.73;;;;;;;22.61;41.34;97659.44;5296059;27;20005;-85
2024/04/14 02:31:05;;;;;;;2.15;1.80;;;;;;;22.66;40.95;97655.06;5283247;26;19997;-85
2024/04/14 02:33:30;;;;;;;1.60;1.48;;;;;;;22.53;41.01;97657.53;5277615;26;20005;-85
2024/04/14 02:36:01;;;;;;;2.20;1.70;;;;;;;22.68;41.22;97664.28;5307807;26;20020;-85
2024/04/14 02:38:27;;;;;;;1.90;1.70;;;;;;;22.54;41.18;97653.81;5264915;26;20109;-81
2024/04/14 02:41:04;;;;;;;2.22;1.70;;;;;;;22.67;41.12;97661.94;5312982;26;20009;-81
2024/04/14 02:43:31;;;;;;;2.00;1.70;;;;;;;22.35;41.56;97648.00;5292012;26;20454;-81
2024/04/14 02:45:57;;;;;;;1.90;1.50;;;;;;;22.33;41.46;97653.63;5300426;26;20019;-81
2024/04/14 02:48:22;;;;;;;2.35;1.80;;;;;;;22.26;41.46;97651.38;5298690;26;20456;-81
2024/04/14 02:50:48;;;;;;;3.22;1.85;;;;;;;22.28;41.39;97659.06;5328498;26;20095;-81
2024/04/14 02:53:14;;;;;;;1.85;1.70;;;;;;;22.33;41.59;97658.94;5270529;26;20467;-81
2024/04/14 02:55:39;;;;;;;2.17;1.92;;;;;;;22.27;41.52;97662.78;5314141;26;20354;-81
2024/04/14 02:58:05;;;;;;;2.58;1.90;;;;;;;22.17;41.76;97647.91;5314629;26;20009;-81
2024/04/14 03:00:31;;;;;;;2.10;1.70;;;;;;;22.06;41.93;97636.81;5283874;26;20459;-81
2024/04/14 03:02:57;;;;;;;1.83;1.67;;;;;;;22.17;41.65;97655.09;5314696;26;20011;-81
2024/04/14 03:05:23;;;;;;;1.92;1.60;;;;;;;22.11;41.85;97657.13;5313947;26;20088;-81
2024/04/14 03:07:49;;;;;;;2.80;1.60;;;;;;;22.16;41.89;97670.25;5331752;26;20015;-82
2024/04/14 03:10:14;;;;;;;2.03;1.67;;;;;;;22.11;41.76;97664.31;5300542;26;20383;-81
2024/04/14 03:12:40;;;;;;;2.55;1.67;;;;;;;22.07;42.00;97666.78;5295114;26;20019;-81
2024/04/14 03:15:06;;;;;;;3.15;1.90;;;;;;;21.98;42.29;97660.66;5301952;26;20023;-81
2024/04/14 03:17:31;;;;;;;3.03;1.67;;;;;;;22.08;41.85;97673.66;5276405;27;20354;-82
2024/04/14 03:19:57;;;;;;;1.92;1.75;;;;;;;22.12;41.67;97661.31;5275430;26;20024;-81
2024/04/14 03:22:22;;;;;;;2.28;1.77;;;;;;;22.12;41.72;97669.28;5255042;26;20009;-81
2024/04/14 03:24:48;;;;;;;1.98;1.65;;;;;;;22.08;42.11;97673.66;5290137;26;20444;-81
2024/04/14 03:27:14;;;;;;;2.05;1.60;;;;;;;22.00;41.99;97661.13;5309310;26;20493;-81
2024/04/14 03:29:39;;;;;;;2.33;1.55;;;;;;;21.86;42.57;97672.63;5309461;26;20440;-81
2024/04/14 03:32:05;;;;;;;3.90;1.83;;;;;;;21.86;42.20;97671.84;5311217;26;20005;-82
2024/04/14 03:34:31;;;;;;;2.25;1.92;;;;;;;21.91;42.27;97670.94;5279770;26;20049;-82
2024/04/14 03:36:56;;;;;;;1.90;1.70;;;;;;;21.96;41.96;97666.28;5345506;26;20806;-81
2024/04/14 03:39:22;;;;;;;1.65;1.55;;;;;;;21.90;42.22;97667.50;5283939;26;20013;-82
2024/04/14 03:41:47;;;;;;;2.83;1.73;;;;;;;21.93;41.77;97666.09;5311851;26;20076;-81
2024/04/14 03:44:12;;;;;;;3.78;1.88;;;;;;;21.89;42.45;97660.63;5310823;26;20023;-81
2024/04/14 03:46:38;;;;;;;2.17;1.60;;;;;;;21.91;42.28;97665.63;5295990;26;20587;-81
2024/04/14 03:49:03;;;;;;;1.95;1.75;;;;;;;21.95;42.00;97670.03;5309446;26;20001;-81
2024/04/14 03:51:28;;;;;;;2.25;1.90;;;;;;;21.89;42.21;97668.59;5265462;27;20005;-81
2024/04/14 03:53:54;;;;;;;1.98;1.73;;;;;;;21.83;42.05;97662.66;5341740;26;20040;-81
2024/04/14 03:56:19;;;;;;;2.53;1.80;;;;;;;21.81;42.83;97661.38;5311687;26;20023;-81
2024/04/14 03:58:45;;;;;;;2.35;1.50;;;;;;;21.73;42.56;97657.63;5308368;26;20017;-81
2024/04/14 04:01:10;;;;;;;1.88;1.77;;;;;;;21.69;42.73;97667.25;5320452;26;19997;-81
2024/04/14 04:03:35;;;;;;;2.85;1.70;;;;;;;21.63;42.95;97663.94;5332101;26;20027;-81
2024/04/14 04:06:03;;;;;;;3.20;1.75;;;;;;;21.56;42.85;97666.25;5303883;26;20019;-81
2024/04/14 04:08:28;;;;;;;3.38;1.67;;;;;;;21.56;42.75;97668.91;5294491;27;20377;-81
2024/04/14 04:11:02;;;;;;;1.98;1.77;;;;;;;21.60;42.79;97663.78;5298484;26;20429;-81
2024/04/14 04:13:28;;;;;;;2.10;1.90;;;;;;;21.51;43.01;97659.22;5307896;26;20005;-81
2024/04/14 04:15:58;;;;;;;1.80;1.50;;;;;;;21.58;42.85;97669.38;5283335;26;20024;-81
2024/04/14 04:18:24;;;;;;;2.13;1.90;;;;;;;21.52;42.67;97657.34;5315668;26;20004;-81
2024/04/14 04:21:01;;;;;;;2.63;1.83;;;;;;;21.59;42.88;97668.31;5336229;26;20461;-81
2024/04/14 04:23:27;;;;;;;2.15;1.73;;;;;;;21.44;42.97;97666.78;5305783;26;20460;-81
2024/04/14 04:25:55;;;;;;;3.00;1.90;;;;;;;21.64;42.98;97670.03;5328298;26;20002;-82
2024/04/14 04:28:24;;;;;;;2.45;1.90;;;;;;;21.65;42.60;97668.94;5292799;26;20450;-81
2024/04/14 04:30:50;;;;;;;1.88;1.77;;;;;;;21.64;42.65;97672.69;5265356;26;20017;-81
2024/04/14 04:33:19;;;;;;;2.97;1.80;;;;;;;21.52;42.69;97665.28;5255330;26;20083;-81
2024/04/14 04:35:54;;;;;;;2.25;1.60;;;;;;;21.62;42.90;97670.31;5324456;26;20031;-81
2024/04/14 04:38:21;;;;;;;2.83;2.03;;;;;;;21.47;43.56;97676.81;5337633;26;20099;-81
2024/04/14 04:40:46;;;;;;;2.28;2.00;;;;;;;21.42;43.49;97679.56;5277476;26;19997;-81
2024/04/14 04:43:12;;;;;;;3.33;1.90;;;;;;;21.40;43.71;97671.09;5349545;26;20073;-81
2024/04/14 04:45:37;;;;;;;2.65;2.10;;;;;;;21.33;43.61;97668.09;5319419;26;20082;-81
2024/04/14 04:48:03;;;;;;;2.08;1.88;;;;;;;21.25;43.81;97666.19;5290719;26;20001;-81
2024/04/14 04:50:28;;;;;;;3.20;1.92;;;;;;;21.28;44.04;97665.59;5312247;26;20016;-81
2024/04/14 04:52:53;;;;;;;2.80;2.50;;;;;;;21.26;44.38;97670.41;5315210;26;20018;-81
2024/04/14 04:55:19;;;;;;;1.95;1.83;;;;;;;21.33;44.16;97673.41;5300474;26;20024;-81
2024/04/14 04:57:46;;;;;;;2.70;2.10;;;;;;;21.37;44.05;97673.59;5253780;26;20012;-86
2024/04/14 05:00:12;;;;;;;4.65;2.10;;;;;;;21.38;44.16;97670.63;5314384;26;20023;-85
2024/04/14 05:02:38;;;;;;;3.65;2.42;;;;;;;21.44;44.08;97671.31;5284255;26;19997;-85
2024/04/14 05:05:03;;;;;;;2.35;1.90;;;;;;;21.39;44.32;97676.72;5287218;26;20326;-86
2024/04/14 05:07:29;;;;;;;2.17;1.83;;;;;;;21.41;44.08;97671.91;5334263;26;20001;-85
2024/04/14 05:09:54;;;;;;;2.22;2.00;;;;;;;21.45;44.04;97678.94;5295371;26;20013;-86
2024/04/14 05:12:20;;;;;;;2.15;1.83;;;;;;;21.43;43.94;97677.69;5335661;26;20005;-85
2024/04/14 05:14:45;;;;;;;3.33;2.15;;;;;;;21.54;44.26;97680.88;5335047;26;20004;-84
2024/04/14 05:17:10;;;;;;;2.60;1.80;;;;;;;21.58;44.04;97679.97;5319147;26;20009;-86
2024/04/14 05:19:36;;;;;;;3.05;2.08;;;;;;;21.68;43.83;97685.03;5335375;26;20009;-86
2024/04/14 05:22:01;;;;;;;3.08;2.05;;;;;;;21.58;44.29;97676.56;5367774;26;20016;-85
2024/04/14 05:24:26;;;;;;;2.85;2.05;;;;;;;21.58;44.04;97671.25;5335440;26;20005;-84
2024/04/14 05:26:52;;;;;;;2.88;2.10;;;;;;;21.65;44.20;97688.28;5331237;26;20103;-86
2024/04/14 05:29:17;;;;;;;2.03;1.83;;;;;;;21.65;44.55;97688.28;5331513;26;20004;-86
2024/04/14 05:31:42;;;;;;;2.60;1.90;;;;;;;21.75;44.38;97681.94;5281520;27;20691;-86
2024/04/14 05:34:08;;;;;;;4.20;2.33;;;;;;;21.78;44.08;97686.63;5343013;26;20004;-85
2024/04/14 05:36:33;;;;;;;3.28;2.40;;;;;;;21.84;44.33;97688.06;5326039;26;20004;-86
2024/04/14 05:38:59;;;;;;;3.40;1.98;;;;;;;21.78;44.15;97684.00;5299228;26;20059;-86
2024/04/14 05:41:24;;;;;;;2.88;2.38;;;;;;;21.87;44.30;97697.28;5290910;26;20408;-86
2024/04/14 05:43:49;;;;;;;2.85;1.98;;;;;;;21.95;44.28;97695.75;5313533;26;20055;-86
2024/04/14 05:46:15;;;;;;;2.30;2.10;;;;;;;22.03;44.15;97690.47;5312517;26;20095;-86
2024/04/14 05:48:40;;;;;;;3.67;2.38;;;;;;;22.20;43.74;97700.34;5300259;26;20006;-85
2024/04/14 05:51:06;;;;;;;3.30;2.20;;;;;;;22.34;43.78;97694.97;5295073;26;20451;-85
2024/04/14 05:53:31;;;;;;;2.35;2.10;;;;;;;22.39;43.73;97694.06;5289464;26;20470;-85
2024/04/14 05:55:57;;;;;;;4.00;2.47;;;;;;;22.51;43.40;97696.88;5328385;26;20024;-86
2024/04/14 05:58:22;;;;;;;3.65;2.30;;;;;;;22.54;43.78;97706.88;5299049;26;20001;-86
2024/04/14 06:00:47;;;;;;;2.67;2.20;;;;;;;22.53;43.22;97709.84;5331971;26;20078;-87
2024/04/14 06:03:13;;;;;;;3.00;2.72;;;;;;;22.58;43.13;97697.19;5289468;26;20045;-86
2024/04/14 06:05:38;;;;;;;2.42;2.22;;;;;;;22.66;42.97;97700.19;5312392;26;20529;-86
2024/04/14 06:08:04;;;;;;;4.50;2.42;;;;;;;22.76;43.03;97703.31;5255299;26;20017;-82
2024/04/14 06:10:30;;;;;;;2.58;2.38;;;;;;;22.75;42.52;97695.66;5309816;26;20028;-82
2024/04/14 06:12:55;;;;;;;3.35;2.13;;;;;;;22.95;42.91;97711.00;5280705;26;20010;-82
2024/04/14 06:15:20;;;;;;;3.25;2.05;;;;;;;22.98;42.51;97709.59;5348489;26;20015;-82
2024/04/14 06:17:46;;;;;;;2.47;2.13;;;;;;;22.92;42.74;97695.69;5332147;26;20480;-86
2024/04/14 06:20:11;;;;;;;2.83;2.38;;;;;;;23.00;42.69;97697.56;5325811;26;20398;-86
2024/04/14 06:22:36;;;;;;;3.20;2.28;;;;;;;23.11;42.95;97705.25;5262410;27;20017;-86
2024/04/14 06:25:02;;;;;;;2.53;2.33;;;;;;;23.17;42.56;97707.44;5320060;26;20015;-85
2024/04/14 06:27:27;;;;;;;2.33;2.13;;;;;;;23.34;42.12;97701.31;5340196;26;20031;-85
2024/04/14 06:29:53;;;;;;;2.60;2.38;;;;;;;23.28;41.67;97707.88;5293647;26;20019;-86
2024/04/14 06:32:18;;;;;;;2.58;2.38;;;;;;;23.38;41.02;97706.78;5332225;26;20040;-86
2024/04/14 06:34:43;;;;;;;3.10;1.90;;;;;;;23.45;41.13;97701.00;5334474;26;20015;-86
2024/04/14 06:37:12;;;;;;;2.90;2.17;;;;;;;23.68;41.00;97697.03;5341797;26;20086;-87
2024/04/14 06:39:37;;;;;;;3.35;2.35;;;;;;;23.64;41.10;97696.09;5322097;26;20005;-86
2024/04/14 06:42:05;;;;;;;2.60;1.95;;;;;;;23.84;40.98;97701.88;5313968;26;20001;-86
2024/04/14 06:44:30;;;;;;;3.10;2.47;;;;;;;23.86;40.99;97707.63;5312726;26;20074;-86
2024/04/14 06:46:56;;;;;;;3.20;2.28;;;;;;;23.90;40.90;97692.59;5326841;26;20013;-86
2024/04/14 06:49:21;;;;;;;3.05;2.00;;;;;;;24.05;40.79;97702.69;5282557;26;20013;-86
2024/04/14 06:51:46;;;;;;;2.67;2.25;;;;;;;24.11;41.05;97712.09;5324285;26;20000;-87
2024/04/14 06:54:12;;;;;;;2.53;2.33;;;;;;;24.28;40.48;97716.53;5324201;26;20011;-86
2024/04/14 06:56:37;;;;;;;3.63;2.25;;;;;;;24.23;40.41;97723.91;5302324;26;20004;-87
2024/04/14 06:59:03;;;;;;;2.70;2.50;;;;;;;24.44;40.19;97714.09;5295596;26;20020;-87
2024/04/14 07:01:28;;;;;;;3.47;2.25;;;;;;;24.58;40.14;97718.44;5283882;26;20000;-85
2024/04/14 07:03:54;;;;;;;2.05;1.95;;;;;;;24.76;40.70;97703.13;5278134;26;20454;-86
2024/04/14 07:06:20;;;;;;;2.63;2.10;;;;;;;24.95;39.68;97713.31;5334972;26;20531;-85
2024/04/14 07:08:45;;;;;;;2.83;2.55;;;;;;;25.02;39.52;97697.63;5330009;26;20469;-85
2024/04/14 07:11:10;;;;;;;3.35;2.53;;;;;;;25.07;40.50;97701.94;5311120;26;20475;-86
2024/04/14 07:13:36;;;;;;;3.10;2.22;;;;;;;25.25;39.56;97703.34;5362852;26;20384;-85
2024/04/14 07:16:01;;;;;;;2.67;2.00;;;;;;;25.36;38.52;97709.06;5278772;26;20010;-87
2024/04/14 07:18:27;;;;;;;3.60;2.42;;;;;;;25.32;38.81;97700.97;5335950;26;20004;-86
2024/04/14 07:20:52;;;;;;;3.22;2.00;;;;;;;25.40;38.74;97702.00;5310442;26;20012;-88
2024/04/14 07:23:18;;;;;;;3.38;2.67;;;;;;;25.46;38.37;97711.34;5321672;26;19997;-87
2024/04/14 07:25:43;;;;;;;2.33;2.10;;;;;;;25.59;38.04;97706.81;5321741;26;20000;-86
2024/04/14 07:28:08;;;;;;;2.80;2.13;;;;;;;25.76;37.63;97705.88;5304414;26;20023;-87
2024/04/14 07:30:34;;;;;;;2.33;2.10;;;;;;;25.91;37.31;97710.56;5264884;26;20001;-87
2024/04/14 07:32:59;;;;;;;2.75;1.95;;;;;;;26.14;37.25;97710.16;5357666;26;20015;-86
2024/04/14 07:35:25;;;;;;;3.85;2.55;;;;;;;26.15;36.37;97709.81;5323821;26;20075;-87
2024/04/14 07:37:50;;;;;;;2.50;2.30;;;;;;;26.09;36.83;97716.47;5288866;26;20008;-86
2024/04/14 07:40:15;;;;;;;2.28;2.05;;;;;;;26.08;36.80;97714.13;5285434;26;20363;-85
2024/04/14 07:42:41;;;;;;;2.33;1.88;;;;;;;26.11;36.66;97702.81;5326967;26;20707;-86
2024/04/14 07:45:07;;;;;;;3.58;2.30;;;;;;;26.28;36.41;97697.22;5328871;26;20357;-87
2024/04/14 07:47:32;;;;;;;2.50;1.90;;;;;;;26.59;36.35;97706.53;5277704;27;20042;-87
2024/04/14 07:49:58;;;;;;;2.22;1.90;;;;;;;26.50;35.94;97706.66;5335033;26;20463;-85
2024/04/14 07:52:23;;;;;;;3.40;2.00;;;;;;;26.64;36.31;97711.69;5302980;26;20009;-85
2024/04/14 07:54:48;;;;;;;3.55;1.80;;;;;;;26.90;34.99;97705.16;5316242;26;20458;-86
2024/04/14 07:57:14;;;;;;;2.30;2.10;;;;;;;26.68;35.95;97706.44;5357128;26;20004;-85
2024/04/14 07:59:39;;;;;;;1.90;1.80;;;;;;;26.98;35.37;97698.91;5302348;26;20032;-86
2024/04/14 08:02:04;;;;;;;4.00;1.67;;;;;;;27.02;35.54;97697.09;5281493;26;20000;-85
2024/04/14 08:04:30;;;;;;;3.08;1.98;;;;;;;27.40;34.99;97698.56;5328268;26;20001;-86
2024/04/14 08:06:55;;;;;;;2.15;2.00;;;;;;;27.50;34.49;97707.94;5341681;26;20430;-86
2024/04/14 08:09:21;;;;;;;2.10;1.95;;;;;;;27.73;33.35;97700.13;5283708;27;20401;-86
2024/04/14 08:11:46;;;;;;;3.13;1.95;;;;;;;27.78;33.35;97699.13;5263518;26;20023;-85
2024/04/14 08:14:13;;;;;;;1.77;1.67;;;;;;;27.63;33.79;97693.38;5338026;26;20019;-85
2024/04/14 08:16:39;;;;;;;4.15;1.88;;;;;;;27.80;33.06;97697.63;5314437;26;20461;-87
2024/04/14 08:19:05;;;;;;;2.33;1.60;;;;;;;27.84;32.26;97698.47;5284012;26;20001;-84
2024/04/14 08:21:30;;;;;;;1.88;1.70;;;;;;;27.90;31.92;97707.06;5341325;26;20441;-87
2024/04/14 08:23:55;;;;;;;2.72;1.65;;;;;;;27.78;31.21;97702.56;5277474;27;20014;-85
2024/04/14 08:26:21;;;;;;;2.13;1.75;;;;;;;27.68;31.82;97700.41;5334551;26;20226;-87
2024/04/14 08:28:46;;;;;;;1.63;1.52;;;;;;;27.80;32.16;97702.97;5302239;26;20009;-81
2024/04/14 08:31:11;;;;;;;3.10;1.73;;;;;;;27.67;32.59;97709.53;5315541;26;20020;-80
2024/04/14 08:33:37;;;;;;;1.92;1.73;;;;;;;27.90;32.26;97703.56;5336571;26;20440;-81
2024/04/14 08:36:03;;;;;;;2.75;1.58;;;;;;;27.88;32.00;97705.81;5312915;26;20020;-81
2024/04/14 08:38:29;;;;;;;1.65;1.50;;;;;;;28.01;30.40;97702.75;5313765;26;20013;-88
2024/04/14 08:40:55;;;;;;;1.42;1.13;;;;;;;28.18;30.01;97706.19;5309579;26;20087;-85
2024/04/14 08:43:21;;;;;;;1.20;1.20;;;;;;;28.26;29.49;97713.28;5315026;26;19997;-88
2024/04/14 08:45:47;;;;;;;1.55;1.30;;;;;;;28.43;28.83;97708.66;5320025;26;20011;-85
2024/04/14 08:48:13;;;;;;;3.30;1.40;;;;;;;28.32;31.46;97706.50;5276983;27;20469;-87
2024/04/14 08:50:39;;;;;;;2.13;1.20;;;;;;;28.54;29.57;97707.75;5277716;26;20012;-87
2024/04/14 08:53:08;;;;;;;2.20;1.70;;;;;;;28.71;29.36;97697.81;5316385;26;20079;-87
2024/04/14 08:55:34;;;;;;;1.73;1.10;;;;;;;28.79;29.44;97704.88;5310805;26;20052;-87
2024/04/14 08:57:59;;;;;;;1.00;1.00;;;;;;;28.65;28.25;97705.34;5331113;26;20421;-86
2024/04/14 09:00:25;;;;;;;1.90;1.20;;;;;;;28.94;29.16;97705.94;5268616;26;20001;-86
2024/04/14 09:02:50;;;;;;;1.73;1.13;;;;;;;28.85;27.08;97702.69;5293498;26;20015;-86
2024/04/14 09:05:16;;;;;;;0.93;0.93;;;;;;;28.76;29.11;97708.25;5325152;26;20479;-87
2024/04/14 09:07:43;;;;;;;1.17;1.17;;;;;;;28.89;28.81;97704.31;5334910;26;20525;-85
2024/04/14 09:10:09;;;;;;;1.20;1.10;;;;;;;29.06;26.68;97702.31;5277608;26;20001;-84
2024/04/14 09:12:34;;;;;;;1.65;1.20;;;;;;;28.93;26.45;97704.38;5295641;26;20009;-86
2024/04/14 09:14:59;;;;;;;1.95;1.10;;;;;;;28.85;26.20;97703.44;5257487;26;20362;-86
2024/04/14 09:17:25;;;;;;;2.70;1.38;;;;;;;28.70;28.04;97709.66;5329986;26;20024;-85
2024/04/14 09:19:50;;;;;;;1.63;1.25;;;;;;;28.84;27.00;97709.97;5295881;26;20004;-84
2024/04/14 09:22:16;;;;;;;1.10;1.00;;;;;;;28.95;28.40;97707.50;5317140;26;20069;-86
2024/04/14 09:24:42;;;;;;;2.08;1.20;;;;;;;29.02;27.48;97702.25;5325166;26;20019;-87
2024/04/14 09:27:07;;;;;;;1.88;1.13;;;;;;;29.17;26.92;97702.56;5332146;26;20005;-86
2024/04/14 09:29:36;;;;;;;1.70;1.23;;;;;;;29.28;26.65;97692.81;5251960;27;20362;-86
2024/04/14 09:32:03;;;;;;;1.02;1.02;;;;;;;29.35;26.84;97695.63;5310429;26;20065;-85
2024/04/14 09:34:28;;;;;;;1.95;1.30;;;;;;;29.23;26.62;97685.81;5351043;26;20424;-83
2024/04/14 09:36:53;;;;;;;1.30;1.23;;;;;;;29.22;27.04;97694.22;5337141;26;20016;-83
2024/04/14 09:39:19;;;;;;;1.73;1.13;;;;;;;29.49;27.86;97693.22;5352319;26;20020;-80
2024/04/14 09:41:45;;;;;;;2.00;1.35;;;;;;;29.52;27.32;97707.81;5351785;26;20005;-80
2024/04/14 09:44:11;;;;;;;1.85;1.30;;;;;;;29.46;27.88;97703.88;5321609;26;19997;-80
2024/04/14 09:46:37;;;;;;;3.10;1.48;;;;;;;29.56;27.88;97700.59;5293493;26;20465;-80
2024/04/14 09:49:04;;;;;;;1.33;1.30;;;;;;;29.59;28.66;97697.19;5326404;26;20452;-79
2024/04/14 09:51:29;;;;;;;1.73;1.60;;;;;;;29.63;28.74;97692.69;5330292;26;20033;-82
2024/04/14 09:53:55;;;;;;;3.95;1.98;;;;;;;29.95;27.67;97680.94;5282887;26;19996;-81
2024/04/14 09:56:21;;;;;;;1.88;1.77;;;;;;;29.94;28.78;97693.59;5318196;26;20005;-82
2024/04/14 09:58:46;;;;;;;2.22;1.63;;;;;;;30.03;28.40;97691.41;5318894;26;20488;-80
2024/04/14 10:01:16;;;;;;;2.00;1.70;;;;;;;30.05;30.13;97683.78;5330263;26;20004;-81
2024/04/14 10:03:42;;;;;;;1.95;1.40;;;;;;;30.16;28.65;97685.84;5330320;26;20011;-81
2024/04/14 10:06:08;;;;;;;1.45;1.35;;;;;;;30.33;28.46;97677.28;5296653;26;20001;-80
2024/04/14 10:08:34;;;;;;;2.17;1.85;;;;;;;30.28;28.71;97671.44;5286333;27;20002;-80
2024/04/14 10:11:06;;;;;;;1.60;1.48;;;;;;;30.73;28.12;97675.91;5310015;26;20463;-81
2024/04/14 10:13:51;;;;;;;3.35;1.95;;;;;;;30.55;29.24;97672.22;5301298;26;20459;-79
2024/04/14 10:16:16;;;;;;;;;;;;;;;30.74;28.44;97674.78;5319009;26;20049;-79
2024/04/14 10:18:43;;;;;;;2.03;1.83;;;;;;;30.80;28.58;97684.03;5347152;26;20362;-81
2024/04/14 10:21:11;;;;;;;1.67;1.52;;;;;;;30.97;27.33;97671.97;5317354;26;20019;-80
2024/04/14 10:23:45;;;;;;;2.63;1.80;;;;;;;30.96;28.67;97672.34;5300479;26;20076;-79
2024/04/14 10:26:15;;;;;;;1.85;1.75;;;;;;;31.08;28.03;97672.09;5339882;26;20040;-80
2024/04/14 10:28:48;;;;;;;1.80;1.70;;;;;;;30.79;28.69;97663.69;5321565;26;20034;-80
2024/04/14 10:31:24;;;;;;;1.85;1.63;;;;;;;30.95;27.62;97654.69;5274626;26;20014;-82
2024/04/14 10:34:06;;;;;;;2.05;1.85;;;;;;;30.81;28.25;97661.41;5318537;26;20507;-81
2024/04/14 10:36:36;;;;;;;2.13;1.92;;;;;;;30.43;28.47;97671.31;5307837;26;20049;-80
2024/04/14 10:39:03;;;;;;;3.03;1.80;;;;;;;30.50;28.87;97659.09;5322758;26;20059;-80
2024/04/14 10:41:28;;;;;;;1.73;1.52;;;;;;;30.66;29.08;97657.00;5331518;26;20008;-81
2024/04/14 10:43:54;;;;;;;1.83;1.65;;;;;;;30.80;28.19;97657.16;5321485;26;20064;-80
2024/04/14 10:46:19;;;;;;;3.97;2.30;;;;;;;30.84;27.45;97654.50;5291564;26;20056;-80
2024/04/14 10:48:46;;;;;;;2.33;1.90;;;;;;;30.86;29.28;97649.53;5313698;26;20013;-79
2024/04/14 10:51:11;;;;;;;1.95;1.63;;;;;;;30.60;29.83;97655.75;5331145;26;20005;-80
2024/04/14 10:53:40;;;;;;;1.77;1.67;;;;;;;30.62;29.52;97648.91;5315085;26;20475;-80
2024/04/14 10:56:06;;;;;;;2.13;1.60;;;;;;;30.88;27.75;97655.34;5323074;26;20464;-79
2024/04/14 10:58:35;;;;;;;2.00;1.80;;;;;;;31.13;28.72;97650.25;5286267;26;20476;-80
2024/04/14 11:01:01;;;;;;;2.35;1.95;;;;;;;31.31;28.91;97647.75;5301689;26;20076;-80
2024/04/14 11:03:27;;;;;;;2.58;1.70;;;;;;;31.46;27.13;97640.56;5316636;26;20004;-80
2024/04/14 11:05:53;;;;;;;1.90;1.80;;;;;;;31.46;26.37;97651.34;5308926;26;19997;-79
2024/04/14 11:08:19;;;;;;;2.13;2.03;;;;;;;31.48;26.43;97640.97;5265732;26;19997;-79
2024/04/14 11:10:46;;;;;;;2.10;1.98;;;;;;;30.99;26.00;97633.97;5303742;26;20354;-78
2024/04/14 11:13:15;;;;;;;3.85;1.80;;;;;;;30.72;26.48;97631.31;5234840;26;20006;-79
2024/04/14 11:15:44;;;;;;;2.35;1.88;;;;;;;31.02;26.79;97637.81;5263690;26;19996;-80
2024/04/14 11:18:09;;;;;;;2.10;1.90;;;;;;;30.59;27.33;97627.34;5280575;26;20028;-80
2024/04/14 11:20:35;;;;;;;2.50;2.20;;;;;;;30.59;27.22;97630.81;5315049;26;20020;-81
2024/04/14 11:23:03;;;;;;;2.08;1.75;;;;;;;30.24;28.05;97617.66;5337679;26;20005;-80
2024/04/14 11:25:30;;;;;;;2.00;1.75;;;;;;;30.48;28.95;97624.53;5333473;26;20001;-80
2024/04/14 11:27:55;;;;;;;2.40;1.85;;;;;;;30.66;27.86;97619.38;5306345;26;20342;-79